createdAt,value
2023-08-25T01:14:51.166Z,13.78
2023-08-25T01:18:56.383Z,13.82
2023-08-25T01:23:10.767Z,13.78
2023-08-25T01:27:15.232Z,13.81
2023-08-25T01:31:20.886Z,13.90
2023-08-25T01:35:39.683Z,14.01
2023-08-25T01:39:44.844Z,14.12
2023-08-25T01:43:51.695Z,14.21
2023-08-25T01:47:56.799Z,14.35
2023-08-25T01:52:00.846Z,14.43
2023-08-25T01:56:03.853Z,14.52
2023-08-25T02:00:09.840Z,14.63
2023-08-25T02:04:12.861Z,14.69
2023-08-25T02:08:15.417Z,14.72
2023-08-25T02:12:19.496Z,14.74
2023-08-25T02:16:27.043Z,14.70
2023-08-25T02:20:29.996Z,14.63
2023-08-25T02:24:32.692Z,14.60
2023-08-25T02:28:36.146Z,14.60
2023-08-25T02:32:40.344Z,14.65
2023-08-25T02:36:43.351Z,14.76
2023-08-25T02:40:46.310Z,14.81
2023-08-25T02:44:49.348Z,14.77
2023-08-25T02:48:53.674Z,14.72
2023-08-25T02:52:58.194Z,14.61
2023-08-25T02:57:01.272Z,14.51
2023-08-25T03:01:13.161Z,14.52
2023-08-25T03:05:17.947Z,14.51
2023-08-25T03:09:20.456Z,14.50
2023-08-25T03:13:27.571Z,14.48
2023-08-25T03:17:31.317Z,14.48
2023-08-25T03:21:35.772Z,14.50
2023-08-25T03:25:40.372Z,14.54
2023-08-25T03:29:44.151Z,14.54
2023-08-25T03:33:46.608Z,14.55
2023-08-25T03:37:51.805Z,14.53
2023-08-25T03:41:54.798Z,14.49
2023-08-25T03:45:58.487Z,14.50
2023-08-25T03:50:02.239Z,14.57
2023-08-25T03:54:07.564Z,14.69
2023-08-25T03:58:10.407Z,14.85
2023-08-25T04:02:13.317Z,15.01
2023-08-25T04:06:16.614Z,15.16
2023-08-25T04:10:21.089Z,15.32
2023-08-25T04:14:24.688Z,15.49
2023-08-25T04:18:28.117Z,15.67
2023-08-25T04:22:30.952Z,15.82
2023-08-25T04:26:35.130Z,15.98
2023-08-25T04:30:38.280Z,16.14
2023-08-25T04:34:41.047Z,16.30
2023-08-25T04:38:43.976Z,16.42
2023-08-25T04:42:48.493Z,16.53
2023-08-25T04:46:51.795Z,16.65
2023-08-25T04:50:54.836Z,16.76
2023-08-25T04:54:58.146Z,16.89
2023-08-25T04:59:01.905Z,17.09
2023-08-25T05:03:05.493Z,17.25
2023-08-25T05:07:09.070Z,17.43
2023-08-25T05:11:11.802Z,17.53
2023-08-25T05:15:16.082Z,17.70
2023-08-25T05:19:18.969Z,17.93
2023-08-25T05:23:21.415Z,18.20
2023-08-25T05:27:24.621Z,18.49
2023-08-25T05:31:29.351Z,18.66
2023-08-25T05:35:32.180Z,18.88
2023-08-25T05:39:35.269Z,19.05
2023-08-25T05:43:38.347Z,19.20
2023-08-25T05:47:43.243Z,19.38
2023-08-25T05:51:47.053Z,19.57
2023-08-25T05:55:50.779Z,19.86
2023-08-25T05:59:53.779Z,20.14
2023-08-25T06:03:58.535Z,20.32
2023-08-25T06:08:01.350Z,20.43
2023-08-25T06:12:04.583Z,20.45
2023-08-25T06:16:08.414Z,20.60
2023-08-25T06:20:14.044Z,20.79
2023-08-25T06:24:17.342Z,20.93
2023-08-25T06:28:20.173Z,21.08
2023-08-25T06:32:25.383Z,21.30
2023-08-25T06:36:30.008Z,21.83
2023-08-25T06:40:35.251Z,22.39
2023-08-25T06:44:38.430Z,22.58
2023-08-25T06:48:41.302Z,22.46
2023-08-25T06:52:47.910Z,22.23
2023-08-25T06:56:52.500Z,21.98
2023-08-25T07:00:55.835Z,21.86
2023-08-25T07:04:58.958Z,21.95
2023-08-25T07:09:02.449Z,22.24
2023-08-25T07:13:08.955Z,22.43
2023-08-25T07:17:12.281Z,22.59
2023-08-25T07:21:15.945Z,22.53
2023-08-25T07:25:20.433Z,22.43
2023-08-25T07:29:24.276Z,22.33
2023-08-25T07:33:27.670Z,22.14
2023-08-25T07:37:30.694Z,22.13
2023-08-25T07:41:36.449Z,22.02
2023-08-25T07:45:40.062Z,22.03
2023-08-25T07:49:43.409Z,22.08
2023-08-25T07:53:46.681Z,22.03
2023-08-25T07:57:51.363Z,21.94
2023-08-25T08:01:54.812Z,21.90
2023-08-25T08:05:59.770Z,22.09
2023-08-25T08:10:04.406Z,22.20
2023-08-25T08:14:09.191Z,22.39
2023-08-25T08:18:12.849Z,22.53
2023-08-25T08:22:16.380Z,22.77
2023-08-25T08:26:19.732Z,22.84
2023-08-25T08:30:24.028Z,23.14
2023-08-25T08:34:27.376Z,23.53
2023-08-25T08:38:31.504Z,23.55
2023-08-25T08:42:35.558Z,23.53
2023-08-25T08:46:43.048Z,23.48
2023-08-25T08:50:49.745Z,23.46
2023-08-25T08:54:52.543Z,23.47
2023-08-25T08:58:56.113Z,23.36
2023-08-25T09:03:03.163Z,23.45
2023-08-25T09:07:08.450Z,23.62
2023-08-25T09:11:11.681Z,23.81
2023-08-25T09:15:33.980Z,23.92
2023-08-25T09:19:39.370Z,24.15
2023-08-25T09:23:54.164Z,24.09
2023-08-25T09:28:00.052Z,23.71
2023-08-25T09:32:06.644Z,23.76
2023-08-25T09:36:12.080Z,23.55
2023-08-25T09:40:16.702Z,23.30
2023-08-25T09:44:19.897Z,22.99
2023-08-25T09:48:23.554Z,22.78
2023-08-25T09:52:29.138Z,22.58
2023-08-25T09:56:32.845Z,22.44
2023-08-25T10:00:37.077Z,22.30
2023-08-25T10:04:42.998Z,22.30
2023-08-25T10:08:48.727Z,22.42
2023-08-25T10:12:52.283Z,22.45
2023-08-25T10:16:56.120Z,22.78
2023-08-25T10:21:00.967Z,23.04
2023-08-25T10:25:06.412Z,23.05
2023-08-25T10:29:10.650Z,23.07
2023-08-25T10:33:14.555Z,22.95
2023-08-25T10:37:27.542Z,22.44
2023-08-25T10:41:44.900Z,22.26
2023-08-25T10:45:52.749Z,21.61
2023-08-25T10:49:56.260Z,21.19
2023-08-25T10:53:59.676Z,21.24
2023-08-25T10:58:08.648Z,21.30
2023-08-25T11:02:12.269Z,21.24
2023-08-25T11:06:38.812Z,21.30
2023-08-25T11:10:43.707Z,21.20
2023-08-25T11:14:49.946Z,21.40
2023-08-25T11:18:53.802Z,21.60
2023-08-25T11:23:17.022Z,21.80
2023-08-25T11:27:25.450Z,21.93
2023-08-25T11:31:31.353Z,22.13
2023-08-25T11:35:34.378Z,22.28
2023-08-25T11:39:44.748Z,22.50
2023-08-25T11:43:49.181Z,22.68
2023-08-25T11:47:56.657Z,23.01
2023-08-25T11:52:01.731Z,23.27
2023-08-25T11:56:07.003Z,23.47
2023-08-25T12:00:12.391Z,23.74
2023-08-25T12:04:30.096Z,23.80
2023-08-25T12:08:33.496Z,23.88
2023-08-25T12:12:39.661Z,23.76
2023-08-25T12:16:44.700Z,24.19
2023-08-25T12:20:49.649Z,24.37
2023-08-25T12:24:53.774Z,23.98
2023-08-25T12:28:58.117Z,23.96
2023-08-25T12:33:01.552Z,23.63
2023-08-25T12:37:05.709Z,23.57
2023-08-25T12:41:08.805Z,23.53
2023-08-25T12:45:12.188Z,23.62
2023-08-25T12:49:16.748Z,24.04
2023-08-25T12:53:21.569Z,24.28
2023-08-25T12:57:24.732Z,24.58
2023-08-25T13:01:27.784Z,24.85
2023-08-25T13:05:32.071Z,25.40
2023-08-25T13:09:38.477Z,25.85
2023-08-25T13:13:41.652Z,25.80
2023-08-25T13:17:46.171Z,25.93
2023-08-25T13:21:49.083Z,25.54
2023-08-25T13:25:53.467Z,25.68
2023-08-25T13:29:56.589Z,25.65
2023-08-25T13:33:59.898Z,25.50
2023-08-25T13:38:03.787Z,25.67
2023-08-25T13:42:09.490Z,25.77
2023-08-25T13:46:12.926Z,25.75
2023-08-25T13:50:16.031Z,25.83
2023-08-25T13:54:19.702Z,26.07
2023-08-25T13:58:23.996Z,26.03
2023-08-25T14:02:28.098Z,26.00
2023-08-25T14:06:31.646Z,25.73
2023-08-25T14:10:34.919Z,25.61
2023-08-25T14:14:39.456Z,25.52
2023-08-25T14:18:45.723Z,25.63
2023-08-25T14:22:49.038Z,25.75
2023-08-25T14:26:53.218Z,25.82
2023-08-25T14:30:57.719Z,25.84
2023-08-25T14:35:01.028Z,25.90
2023-08-25T14:39:04.748Z,25.97
2023-08-25T14:43:08.441Z,26.01
2023-08-25T14:47:12.433Z,25.98
2023-08-25T14:51:17.114Z,25.99
2023-08-25T14:55:20.182Z,25.92
2023-08-25T14:59:25.191Z,25.82
2023-08-25T15:03:31.016Z,25.81
2023-08-25T15:07:35.237Z,25.82
2023-08-25T15:11:38.106Z,25.81
2023-08-25T15:15:41.014Z,25.87
2023-08-25T15:19:45.624Z,25.83
2023-08-25T15:23:49.545Z,25.80
2023-08-25T15:27:53.067Z,25.79
2023-08-25T15:31:55.876Z,25.67
2023-08-25T15:36:00.888Z,25.59
2023-08-25T15:40:04.272Z,25.43
2023-08-25T15:44:08.509Z,25.30
2023-08-25T15:48:11.760Z,25.28
2023-08-25T15:52:16.163Z,25.31
2023-08-25T15:56:19.770Z,25.33
2023-08-25T16:00:22.728Z,25.47
2023-08-25T16:04:26.429Z,25.50
2023-08-25T16:08:31.400Z,25.47
2023-08-25T16:12:33.983Z,25.40
2023-08-25T16:16:37.809Z,25.26
2023-08-25T16:20:41.090Z,25.19
2023-08-25T16:24:45.735Z,25.04
2023-08-25T16:28:51.323Z,24.84
2023-08-25T16:32:55.395Z,24.65
2023-08-25T16:37:00.804Z,24.50
2023-08-25T16:41:05.296Z,24.36
2023-08-25T16:45:09.621Z,24.18
2023-08-25T16:49:13.265Z,24.00
2023-08-25T16:53:16.797Z,23.86
2023-08-25T16:57:22.522Z,23.79
2023-08-25T17:01:26.272Z,23.78
2023-08-25T17:05:31.179Z,23.65
2023-08-25T17:09:33.764Z,23.53
2023-08-25T17:13:38.515Z,23.45
2023-08-25T17:17:42.953Z,23.37
2023-08-25T17:21:46.272Z,23.21
2023-08-25T17:25:49.373Z,23.11
2023-08-25T17:29:54.533Z,23.15
2023-08-25T17:33:57.023Z,23.00
2023-08-25T17:38:00.508Z,22.80
2023-08-25T17:42:03.452Z,22.67
2023-08-25T17:46:08.895Z,22.60
2023-08-25T17:50:12.212Z,22.59
2023-08-25T17:54:14.889Z,22.59
2023-08-25T17:58:19.353Z,22.55
2023-08-25T18:02:23.963Z,22.42
2023-08-25T18:06:28.968Z,22.41
2023-08-25T18:10:33.684Z,22.29
2023-08-25T18:14:44.099Z,22.25
2023-08-25T18:18:49.853Z,22.02
2023-08-25T18:22:53.419Z,21.88
2023-08-25T18:26:57.262Z,21.81
2023-08-25T18:31:04.334Z,21.86
2023-08-25T18:35:09.504Z,21.93
2023-08-25T18:39:12.572Z,21.85
2023-08-25T18:43:15.778Z,22.05
2023-08-25T18:47:18.468Z,22.03
2023-08-25T18:51:25.150Z,22.11
2023-08-25T18:55:29.851Z,22.19
2023-08-25T18:59:32.701Z,22.23
2023-08-25T19:03:36.703Z,22.30
2023-08-25T19:07:41.210Z,22.34
2023-08-25T19:11:44.535Z,22.40
2023-08-25T19:15:57.652Z,22.39
2023-08-25T19:20:00.505Z,22.33
2023-08-25T19:24:06.096Z,22.29
2023-08-25T19:28:09.556Z,22.30
2023-08-25T19:32:12.404Z,22.28
2023-08-25T19:36:16.162Z,22.24
2023-08-25T19:40:21.445Z,22.19
2023-08-25T19:44:24.222Z,22.18
2023-08-25T19:48:30.376Z,22.12
2023-08-25T19:52:33.287Z,21.95
2023-08-25T19:56:37.745Z,21.86
2023-08-25T20:00:41.464Z,21.85
2023-08-25T20:04:48.201Z,21.79
2023-08-25T20:08:51.058Z,21.72
2023-08-25T20:12:57.086Z,21.64
2023-08-25T20:16:59.936Z,21.63
2023-08-25T20:21:03.146Z,21.57
2023-08-25T20:25:06.620Z,21.49
2023-08-25T20:29:11.989Z,21.43
2023-08-25T20:33:15.236Z,21.37
2023-08-25T20:37:18.032Z,21.36
2023-08-25T20:41:20.928Z,21.32
2023-08-25T20:45:25.787Z,21.30
2023-08-25T20:49:28.449Z,21.27
2023-08-25T20:53:31.898Z,21.26
2023-08-25T20:57:34.967Z,21.24
2023-08-25T21:01:39.810Z,21.24
2023-08-25T21:05:43.575Z,21.23
2023-08-25T21:09:48.459Z,21.27
2023-08-25T21:13:52.638Z,21.30
2023-08-25T21:17:57.471Z,21.30
2023-08-25T21:22:00.463Z,21.31
2023-08-25T21:26:06.590Z,21.34
2023-08-25T21:30:11.759Z,21.33
2023-08-25T21:34:15.888Z,21.34
2023-08-25T21:38:19.602Z,21.30
2023-08-25T21:42:23.236Z,21.29
2023-08-25T21:46:29.881Z,21.32
2023-08-25T21:50:34.581Z,21.29
2023-08-25T21:54:37.471Z,21.25
2023-08-25T21:58:41.010Z,21.26
2023-08-25T22:02:44.268Z,21.27
2023-08-25T22:06:48.727Z,21.28
2023-08-25T22:10:51.873Z,21.24
2023-08-25T22:14:55.270Z,21.24
2023-08-25T22:18:58.249Z,21.20
2023-08-25T22:23:05.452Z,21.20
2023-08-25T22:27:08.610Z,21.18
2023-08-25T22:31:11.852Z,21.19
2023-08-25T22:35:14.830Z,21.21
2023-08-25T22:39:18.760Z,21.23
2023-08-25T22:43:21.715Z,21.22
2023-08-25T22:47:24.237Z,21.19
2023-08-25T22:51:26.892Z,21.15
2023-08-25T22:55:34.312Z,21.17
2023-08-25T22:59:39.333Z,21.11
2023-08-25T23:03:42.076Z,21.06
2023-08-25T23:07:46.534Z,21.06
2023-08-25T23:11:50.998Z,21.07
2023-08-25T23:15:53.590Z,21.06
2023-08-25T23:19:56.457Z,21.07
2023-08-25T23:23:59.229Z,21.06
2023-08-25T23:28:04.064Z,21.09
